createdAt,value
2018-12-23T00:02:10.929Z,1021.9
2018-12-23T00:07:10.716Z,1022
2018-12-23T00:12:10.725Z,1022
2018-12-23T00:17:10.746Z,1022.2
2018-12-23T00:22:10.723Z,1022.1
2018-12-23T00:27:10.768Z,1022.2
2018-12-23T00:32:10.747Z,1022.2
2018-12-23T00:37:10.719Z,1022.2
2018-12-23T00:42:10.757Z,1022.3
2018-12-23T00:47:10.721Z,1022.7
2018-12-23T00:52:10.751Z,1022.6
2018-12-23T00:57:10.738Z,1022.7
2018-12-23T01:02:10.714Z,1022.7
2018-12-23T01:07:10.718Z,1022.8
2018-12-23T01:12:10.737Z,1022.8
2018-12-23T01:17:10.727Z,1022.9
2018-12-23T01:22:10.779Z,1022.9
2018-12-23T01:27:10.756Z,1023
2018-12-23T01:32:10.768Z,1023.1
2018-12-23T01:37:10.765Z,1023.2
2018-12-23T01:42:10.764Z,1023
2018-12-23T01:47:10.775Z,1023.1
2018-12-23T01:52:10.759Z,1022.9
2018-12-23T01:57:10.750Z,1022.9
2018-12-23T02:02:10.705Z,1022.8
2018-12-23T02:07:10.756Z,1022.8
2018-12-23T02:12:10.756Z,1022.7
2018-12-23T02:17:10.770Z,1022.9
2018-12-23T02:22:10.773Z,1022.9
2018-12-23T02:27:10.784Z,1022.9
2018-12-23T02:32:10.788Z,1022.9
2018-12-23T02:37:10.782Z,1023.1
2018-12-23T02:42:10.780Z,1023
2018-12-23T02:47:10.771Z,1023.1
2018-12-23T02:52:10.807Z,1023.2
2018-12-23T02:57:10.726Z,1023.2
2018-12-23T03:02:10.787Z,1023.2
2018-12-23T03:07:10.792Z,1023.2
2018-12-23T03:12:10.800Z,1023.2
2018-12-23T03:17:10.768Z,1023.2
2018-12-23T03:22:10.797Z,1023.1
2018-12-23T03:27:10.830Z,1023.2
2018-12-23T03:32:10.813Z,1023.3
2018-12-23T03:37:11.022Z,1023.3
2018-12-23T03:42:10.811Z,1023.3
2018-12-23T03:47:10.830Z,1023.4
2018-12-23T03:52:10.828Z,1023.4
2018-12-23T03:57:10.839Z,1023.4
2018-12-23T04:02:10.829Z,1023.4
2018-12-23T04:07:10.806Z,1023.4
2018-12-23T04:12:10.828Z,1023.6
2018-12-23T04:17:10.844Z,1023.6
2018-12-23T04:22:10.822Z,1023.7
2018-12-23T04:27:10.823Z,1023.7
2018-12-23T04:32:10.847Z,1023.7
2018-12-23T04:37:10.834Z,1023.7
2018-12-23T04:42:10.831Z,1023.8
2018-12-23T04:47:10.965Z,1023.8
2018-12-23T04:52:10.862Z,1023.8
2018-12-23T04:57:10.854Z,1023.9
2018-12-23T05:02:10.854Z,1023.8
2018-12-23T05:07:10.836Z,1023.9
2018-12-23T05:12:10.850Z,1024
2018-12-23T05:17:10.858Z,1024.1
2018-12-23T05:22:10.902Z,1024
2018-12-23T05:27:10.855Z,1024.2
2018-12-23T05:32:10.855Z,1024.3
2018-12-23T05:37:10.864Z,1024.4
2018-12-23T05:42:10.870Z,1024.4
2018-12-23T05:47:10.872Z,1024.4
2018-12-23T05:52:10.884Z,1024.4
2018-12-23T05:57:10.853Z,1024.6
2018-12-23T06:02:10.870Z,1024.6
2018-12-23T06:07:10.899Z,1024.6
2018-12-23T06:12:10.894Z,1024.6
2018-12-23T06:17:10.882Z,1024.6
2018-12-23T06:22:10.889Z,1024.8
2018-12-23T06:27:10.892Z,1024.7
2018-12-23T06:32:10.876Z,1024.8
2018-12-23T06:37:10.932Z,1024.8
2018-12-23T06:42:10.906Z,1025
2018-12-23T06:47:10.992Z,1025.1
2018-12-23T06:52:10.928Z,1025.2
2018-12-23T06:57:10.909Z,1025.2
2018-12-23T07:02:10.916Z,1025.1
2018-12-23T07:07:19.387Z,1025.2
2018-12-23T07:12:10.914Z,1025.3
2018-12-23T07:17:10.908Z,1025.3
2018-12-23T07:22:10.940Z,1025.3
2018-12-23T07:27:10.914Z,1025.4
2018-12-23T07:32:10.951Z,1025.6
2018-12-23T07:37:10.941Z,1025.6
2018-12-23T07:42:10.961Z,1025.6
2018-12-23T07:47:10.929Z,1025.7
2018-12-23T07:52:10.936Z,1025.7
2018-12-23T07:57:10.986Z,1025.8
2018-12-23T08:02:11.088Z,1025.7
2018-12-23T08:07:10.959Z,1025.7
2018-12-23T08:12:10.960Z,1025.8
2018-12-23T08:17:10.990Z,1025.9
2018-12-23T08:22:11.064Z,1025.9
2018-12-23T08:27:11.038Z,1025.7
2018-12-23T08:32:11.021Z,1025.9
2018-12-23T08:37:11.029Z,1025.9
2018-12-23T08:42:11.011Z,1025.9
2018-12-23T08:47:11.055Z,1025.9
2018-12-23T08:52:11.003Z,1025.8
2018-12-23T08:57:11.101Z,1025.8
2018-12-23T09:02:11.055Z,1025.7
2018-12-23T09:07:11.039Z,1025.7
2018-12-23T09:12:11.083Z,1025.7
2018-12-23T09:17:11.049Z,1025.6
2018-12-23T09:22:11.028Z,1025.5
2018-12-23T09:27:11.000Z,1025.4
2018-12-23T09:32:11.031Z,1025.3
2018-12-23T09:37:11.043Z,1025.3
2018-12-23T09:42:11.065Z,1025.4
2018-12-23T09:47:11.154Z,1025.4
2018-12-23T09:52:11.173Z,1025.4
2018-12-23T09:57:11.162Z,1025.4
2018-12-23T10:02:11.093Z,1025.3
2018-12-23T10:07:11.075Z,1025.2
2018-12-23T10:12:11.052Z,1025.2
2018-12-23T10:17:11.110Z,1025
2018-12-23T10:22:12.077Z,1025
2018-12-23T10:27:11.103Z,1025
2018-12-23T10:32:11.084Z,1025
2018-12-23T10:37:11.055Z,1024.9
2018-12-23T10:42:11.047Z,1024.8
2018-12-23T10:47:11.174Z,1024.5
2018-12-23T10:52:11.066Z,1024.5
2018-12-23T10:57:11.165Z,1024.5
2018-12-23T11:02:14.308Z,1024.3
2018-12-23T11:07:11.127Z,1024.2
2018-12-23T11:12:11.146Z,1024.1
2018-12-23T11:17:11.833Z,1024
2018-12-23T11:22:11.130Z,1023.9
2018-12-23T11:27:11.187Z,1023.9
2018-12-23T11:32:11.099Z,1024
2018-12-23T11:37:11.098Z,1023.9
2018-12-23T11:42:11.257Z,1023.9
2018-12-23T11:47:13.810Z,1023.8
2018-12-23T11:52:11.176Z,1023.8
2018-12-23T11:57:11.132Z,1023.7
2018-12-23T12:02:15.874Z,1023.6
2018-12-23T12:07:11.763Z,1023.5
2018-12-23T12:12:12.335Z,1023.4
2018-12-23T12:17:12.421Z,1023.3
2018-12-23T12:22:11.819Z,1023.1
2018-12-23T12:27:11.784Z,1023.1
2018-12-23T12:32:11.858Z,1023
2018-12-23T12:37:11.869Z,1022.9
2018-12-23T12:42:14.593Z,1022.9
2018-12-23T12:47:13.271Z,1022.8
2018-12-23T12:52:15.219Z,1022.6
2018-12-23T12:57:11.906Z,1022.6
2018-12-23T13:02:11.971Z,1022.5
2018-12-23T13:07:15.288Z,1022.4
2018-12-23T13:12:12.320Z,1022.4
2018-12-23T13:17:15.076Z,1022.4
2018-12-23T13:22:12.336Z,1022.3
2018-12-23T13:27:12.441Z,1022.3
2018-12-23T13:32:12.326Z,1022.3
2018-12-23T13:37:12.583Z,1022.2
2018-12-23T13:42:12.364Z,1022.1
2018-12-23T13:47:12.858Z,1022.1
2018-12-23T13:52:12.316Z,1022
2018-12-23T13:57:15.085Z,1021.9
2018-12-23T14:02:12.265Z,1021.8
2018-12-23T14:07:12.374Z,1021.7
2018-12-23T14:12:12.443Z,1021.7
2018-12-23T14:17:12.292Z,1021.8
2018-12-23T14:22:12.334Z,1021.8
2018-12-23T14:27:15.110Z,1021.7
2018-12-23T14:32:12.670Z,1021.6
2018-12-23T14:37:12.306Z,1021.6
2018-12-23T14:42:13.878Z,1021.4
2018-12-23T14:47:15.755Z,1021.3
2018-12-23T14:52:12.407Z,1021.3
2018-12-23T14:57:12.798Z,1021.2
2018-12-23T15:02:12.495Z,1021.1
2018-12-23T15:07:16.214Z,1021
2018-12-23T15:12:12.943Z,1020.9
2018-12-23T15:17:13.455Z,1020.8
2018-12-23T15:22:12.493Z,1020.8
2018-12-23T15:27:12.465Z,1020.8
2018-12-23T15:32:12.957Z,1020.7
2018-12-23T15:37:12.452Z,1020.6
2018-12-23T15:42:12.763Z,1020.7
2018-12-23T15:47:13.863Z,1020.7
2018-12-23T15:52:16.083Z,1020.7
2018-12-23T15:57:12.596Z,1020.7
2018-12-23T16:02:15.083Z,1020.5
2018-12-23T16:07:12.814Z,1020.5
2018-12-23T16:12:12.505Z,1020.6
2018-12-23T16:17:14.591Z,1020.6
2018-12-23T16:22:12.742Z,1020.5
2018-12-23T16:27:12.679Z,1020.5
2018-12-23T16:32:14.594Z,1020.5
2018-12-23T16:37:15.337Z,1020.5
2018-12-23T16:42:13.991Z,1020.5
2018-12-23T16:47:12.418Z,1020.6
2018-12-23T16:52:12.517Z,1020.6
2018-12-23T16:57:16.823Z,1020.5
2018-12-23T17:02:12.512Z,1020.3
2018-12-23T17:07:14.687Z,1020.3
2018-12-23T17:12:13.588Z,1020.2
2018-12-23T17:17:17.944Z,1020.2
2018-12-23T17:22:16.038Z,1020.1
2018-12-23T17:27:13.615Z,1020.1
2018-12-23T17:32:17.342Z,1020
2018-12-23T17:37:14.821Z,1019.9
2018-12-23T17:42:15.830Z,1019.9
2018-12-23T17:47:12.963Z,1019.8
2018-12-23T17:52:23.830Z,1019.8
2018-12-23T17:57:12.883Z,1019.8
2018-12-23T18:02:18.900Z,1019.6
2018-12-23T18:07:19.603Z,1019.5
2018-12-23T18:12:13.442Z,1019.4
2018-12-23T18:17:13.219Z,1019.4
2018-12-23T18:22:16.070Z,1019.2
2018-12-23T18:27:14.338Z,1019.2
2018-12-23T18:32:13.755Z,1019.1
2018-12-23T18:37:13.067Z,1019
2018-12-23T18:42:12.963Z,1018.8
2018-12-23T18:47:13.114Z,1018.7
2018-12-23T18:52:14.585Z,1018.6
2018-12-23T18:57:15.636Z,1018.5
2018-12-23T19:02:13.165Z,1018.4
2018-12-23T19:07:14.690Z,1018.2
2018-12-23T19:12:13.423Z,1017.9
2018-12-23T19:17:14.432Z,1017.9
2018-12-23T19:22:14.480Z,1017.7
2018-12-23T19:27:14.171Z,1017.6
2018-12-23T19:32:24.207Z,1017.4
2018-12-23T19:37:13.121Z,1017.3
2018-12-23T19:42:14.851Z,1017.2
2018-12-23T19:47:16.093Z,1017.2
2018-12-23T19:52:13.057Z,1017.1
2018-12-23T19:57:13.159Z,1017
2018-12-23T20:02:13.105Z,1016.8
2018-12-23T20:07:16.225Z,1016.6
2018-12-23T20:12:13.302Z,1016.6
2018-12-23T20:17:14.437Z,1016.6
2018-12-23T20:22:22.328Z,1016.3
2018-12-23T20:27:14.855Z,1016.2
2018-12-23T20:32:14.082Z,1016.1
2018-12-23T20:37:14.357Z,1016.1
2018-12-23T20:42:15.602Z,1016
2018-12-23T20:47:15.671Z,1015.8
2018-12-23T20:52:14.274Z,1015.7
2018-12-23T20:57:13.853Z,1015.7
2018-12-23T21:02:13.874Z,1015.5
2018-12-23T21:07:13.613Z,1015.5
2018-12-23T21:12:17.927Z,1015.5
2018-12-23T21:17:17.150Z,1015.4
2018-12-23T21:22:14.537Z,1015.3
2018-12-23T21:27:14.653Z,1015.2
2018-12-23T21:32:13.609Z,1015.1
2018-12-23T21:37:13.688Z,1014.9
2018-12-23T21:42:13.847Z,1014.8
2018-12-23T21:47:13.855Z,1014.7
2018-12-23T21:52:13.628Z,1014.5
2018-12-23T21:57:14.056Z,1014.2
2018-12-23T22:02:13.997Z,1014.2
2018-12-23T22:07:13.646Z,1014
2018-12-23T22:12:13.605Z,1014
2018-12-23T22:17:13.674Z,1013.6
2018-12-23T22:22:13.689Z,1013.5
2018-12-23T22:27:14.067Z,1013.5
2018-12-23T22:32:14.201Z,1013.3
2018-12-23T22:37:13.845Z,1013.1
2018-12-23T22:42:13.678Z,1013.1
2018-12-23T22:47:13.586Z,1013
2018-12-23T22:52:13.647Z,1013
2018-12-23T22:57:13.643Z,1012.8
2018-12-23T23:02:13.652Z,1012.6
2018-12-23T23:07:16.809Z,1012.5
2018-12-23T23:12:16.850Z,1012.1
2018-12-23T23:17:16.849Z,1011.8
2018-12-23T23:22:16.891Z,1011.5
2018-12-23T23:27:16.907Z,1011.4
2018-12-23T23:32:16.879Z,1011.2
2018-12-23T23:37:16.979Z,1011
2018-12-23T23:42:17.048Z,1010.8
2018-12-23T23:47:17.085Z,1010.8
2018-12-23T23:52:17.103Z,1010.6
2018-12-23T23:57:17.103Z,1010.5
